sensor_id;sensor_type;location;lat;lon;timestamp;pressure;altitude;pressure_sealevel;temperature;humidity
77192;BME280;66172;48.526;8.078;2023-06-04T00:01:39;99404.88;;;17.17;56.69
77192;BME280;66172;48.526;8.078;2023-06-04T00:04:05;99400.47;;;17.02;57.46
77192;BME280;66172;48.526;8.078;2023-06-04T00:06:31;99401.31;;;17.10;57.58
77192;BME280;66172;48.526;8.078;2023-06-04T00:08:57;99409.97;;;17.15;57.16
77192;BME280;66172;48.526;8.078;2023-06-04T00:11:22;99407.59;;;17.10;56.76
77192;BME280;66172;48.526;8.078;2023-06-04T00:13:48;99408.72;;;17.02;57.38
77192;BME280;66172;48.526;8.078;2023-06-04T00:16:14;99403.53;;;16.90;57.78
77192;BME280;66172;48.526;8.078;2023-06-04T00:18:40;99403.00;;;16.70;58.48
77192;BME280;66172;48.526;8.078;2023-06-04T00:21:06;99405.50;;;16.45;58.88
77192;BME280;66172;48.526;8.078;2023-06-04T00:23:32;99398.00;;;16.39;58.93
77192;BME280;66172;48.526;8.078;2023-06-04T00:25:58;99392.47;;;15.98;59.96
77192;BME280;66172;48.526;8.078;2023-06-04T00:28:24;99396.63;;;15.85;60.21
77192;BME280;66172;48.526;8.078;2023-06-04T00:30:50;99400.28;;;15.63;61.02
77192;BME280;66172;48.526;8.078;2023-06-04T00:33:16;99395.69;;;15.71;61.06
77192;BME280;66172;48.526;8.078;2023-06-04T00:35:42;99400.66;;;15.62;61.13
77192;BME280;66172;48.526;8.078;2023-06-04T00:38:08;99403.03;;;15.63;61.23
77192;BME280;66172;48.526;8.078;2023-06-04T00:40:34;99403.81;;;15.64;61.67
77192;BME280;66172;48.526;8.078;2023-06-04T00:43:00;99400.63;;;15.58;61.81
77192;BME280;66172;48.526;8.078;2023-06-04T00:45:26;99391.44;;;15.47;62.24
77192;BME280;66172;48.526;8.078;2023-06-04T00:47:52;99400.22;;;15.60;62.13
77192;BME280;66172;48.526;8.078;2023-06-04T00:50:19;99396.44;;;15.68;61.71
77192;BME280;66172;48.526;8.078;2023-06-04T00:52:47;99401.53;;;15.69;61.58
77192;BME280;66172;48.526;8.078;2023-06-04T00:55:14;99395.31;;;15.72;61.90
77192;BME280;66172;48.526;8.078;2023-06-04T00:57:40;99397.72;;;15.77;61.77
77192;BME280;66172;48.526;8.078;2023-06-04T01:00:06;99397.53;;;15.63;62.29
77192;BME280;66172;48.526;8.078;2023-06-04T01:02:34;99399.97;;;15.68;62.34
77192;BME280;66172;48.526;8.078;2023-06-04T01:07:35;99394.16;;;15.17;63.40
77192;BME280;66172;48.526;8.078;2023-06-04T01:10:02;99394.84;;;15.11;63.54
77192;BME280;66172;48.526;8.078;2023-06-04T01:12:28;99402.84;;;15.23;63.22
77192;BME280;66172;48.526;8.078;2023-06-04T01:14:54;99394.34;;;15.02;64.37
77192;BME280;66172;48.526;8.078;2023-06-04T01:17:23;99393.56;;;14.78;65.37
77192;BME280;66172;48.526;8.078;2023-06-04T01:20:21;99391.38;;;14.87;65.34
77192;BME280;66172;48.526;8.078;2023-06-04T01:23:02;99396.69;;;15.03;64.82
77192;BME280;66172;48.526;8.078;2023-06-04T01:25:39;99395.28;;;15.13;63.99
77192;BME280;66172;48.526;8.078;2023-06-04T01:28:07;99398.06;;;15.16;63.79
77192;BME280;66172;48.526;8.078;2023-06-04T01:30:35;99400.53;;;15.25;63.43
77192;BME280;66172;48.526;8.078;2023-06-04T01:33:18;99403.31;;;15.28;63.46
77192;BME280;66172;48.526;8.078;2023-06-04T01:35:44;99396.78;;;15.36;62.90
77192;BME280;66172;48.526;8.078;2023-06-04T01:38:10;99396.25;;;15.27;63.57
77192;BME280;66172;48.526;8.078;2023-06-04T01:40:36;99400.81;;;15.16;63.92
77192;BME280;66172;48.526;8.078;2023-06-04T01:43:03;99398.03;;;15.13;63.98
77192;BME280;66172;48.526;8.078;2023-06-04T01:45:29;99411.66;;;14.83;65.25
77192;BME280;66172;48.526;8.078;2023-06-04T01:47:55;99404.13;;;14.76;65.38
77192;BME280;66172;48.526;8.078;2023-06-04T01:50:22;99404.00;;;14.69;65.69
77192;BME280;66172;48.526;8.078;2023-06-04T01:52:48;99410.28;;;14.70;65.91
77192;BME280;66172;48.526;8.078;2023-06-04T01:55:16;99409.00;;;14.41;66.33
77192;BME280;66172;48.526;8.078;2023-06-04T01:57:43;99401.84;;;14.14;67.15
77192;BME280;66172;48.526;8.078;2023-06-04T02:00:14;99401.72;;;13.87;68.13
77192;BME280;66172;48.526;8.078;2023-06-04T02:02:41;99407.84;;;13.81;68.21
77192;BME280;66172;48.526;8.078;2023-06-04T02:05:08;99411.88;;;13.68;68.75
77192;BME280;66172;48.526;8.078;2023-06-04T02:07:38;99400.44;;;13.81;68.47
77192;BME280;66172;48.526;8.078;2023-06-04T02:10:06;99408.72;;;13.85;68.44
77192;BME280;66172;48.526;8.078;2023-06-04T02:12:32;99402.72;;;13.79;68.69
77192;BME280;66172;48.526;8.078;2023-06-04T02:14:58;99403.31;;;13.69;68.74
77192;BME280;66172;48.526;8.078;2023-06-04T02:17:24;99399.00;;;13.49;69.60
77192;BME280;66172;48.526;8.078;2023-06-04T02:19:51;99407.13;;;13.65;69.15
77192;BME280;66172;48.526;8.078;2023-06-04T02:22:18;99401.81;;;13.72;69.31
77192;BME280;66172;48.526;8.078;2023-06-04T02:24:44;99403.75;;;13.71;69.24
77192;BME280;66172;48.526;8.078;2023-06-04T02:27:11;99411.50;;;13.69;69.07
77192;BME280;66172;48.526;8.078;2023-06-04T02:29:38;99406.03;;;13.50;69.52
77192;BME280;66172;48.526;8.078;2023-06-04T02:32:05;99413.41;;;13.30;70.47
77192;BME280;66172;48.526;8.078;2023-06-04T02:34:31;99407.72;;;13.04;71.16
77192;BME280;66172;48.526;8.078;2023-06-04T02:36:57;99408.72;;;12.96;71.88
77192;BME280;66172;48.526;8.078;2023-06-04T02:39:24;99417.06;;;13.03;71.75
77192;BME280;66172;48.526;8.078;2023-06-04T02:41:50;99422.81;;;12.98;71.75
77192;BME280;66172;48.526;8.078;2023-06-04T02:44:16;99420.78;;;13.11;71.36
77192;BME280;66172;48.526;8.078;2023-06-04T02:46:41;99410.34;;;13.32;70.47
77192;BME280;66172;48.526;8.078;2023-06-04T02:49:09;99410.41;;;13.35;70.29
77192;BME280;66172;48.526;8.078;2023-06-04T02:51:40;99414.66;;;13.33;70.09
77192;BME280;66172;48.526;8.078;2023-06-04T02:54:06;99419.25;;;13.29;70.37
77192;BME280;66172;48.526;8.078;2023-06-04T02:56:33;99425.91;;;13.12;71.11
77192;BME280;66172;48.526;8.078;2023-06-04T02:58:59;99420.22;;;13.21;70.87
77192;BME280;66172;48.526;8.078;2023-06-04T03:01:26;99432.22;;;13.00;71.56
77192;BME280;66172;48.526;8.078;2023-06-04T03:03:52;99415.31;;;12.95;72.38
77192;BME280;66172;48.526;8.078;2023-06-04T03:06:20;99421.94;;;12.94;71.87
77192;BME280;66172;48.526;8.078;2023-06-04T03:08:47;99421.06;;;12.90;72.13
77192;BME280;66172;48.526;8.078;2023-06-04T03:11:13;99415.56;;;13.06;71.42
77192;BME280;66172;48.526;8.078;2023-06-04T03:13:39;99417.84;;;13.03;71.69
77192;BME280;66172;48.526;8.078;2023-06-04T03:16:05;99412.31;;;13.00;71.85
77192;BME280;66172;48.526;8.078;2023-06-04T03:18:40;99409.53;;;13.12;71.03
77192;BME280;66172;48.526;8.078;2023-06-04T03:21:06;99421.19;;;13.13;71.00
77192;BME280;66172;48.526;8.078;2023-06-04T03:23:33;99429.41;;;13.13;71.22
77192;BME280;66172;48.526;8.078;2023-06-04T03:26:02;99435.47;;;13.22;71.44
77192;BME280;66172;48.526;8.078;2023-06-04T03:28:30;99426.81;;;13.35;70.70
77192;BME280;66172;48.526;8.078;2023-06-04T03:30:56;99440.28;;;13.44;70.60
77192;BME280;66172;48.526;8.078;2023-06-04T03:33:22;99427.34;;;13.60;69.64
77192;BME280;66172;48.526;8.078;2023-06-04T03:35:52;99426.59;;;13.63;69.56
77192;BME280;66172;48.526;8.078;2023-06-04T03:38:27;99429.91;;;13.72;69.13
77192;BME280;66172;48.526;8.078;2023-06-04T03:40:53;99424.91;;;13.74;69.20
77192;BME280;66172;48.526;8.078;2023-06-04T03:43:20;99437.03;;;13.77;68.92
77192;BME280;66172;48.526;8.078;2023-06-04T03:45:46;99443.88;;;13.86;69.14
77192;BME280;66172;48.526;8.078;2023-06-04T03:48:11;99432.22;;;13.89;68.95
77192;BME280;66172;48.526;8.078;2023-06-04T03:50:37;99438.13;;;13.91;68.83
77192;BME280;66172;48.526;8.078;2023-06-04T03:53:03;99436.31;;;13.99;68.24
77192;BME280;66172;48.526;8.078;2023-06-04T03:55:30;99439.78;;;13.96;68.06
77192;BME280;66172;48.526;8.078;2023-06-04T03:57:58;99446.88;;;14.00;68.35
77192;BME280;66172;48.526;8.078;2023-06-04T04:00:24;99449.19;;;13.98;68.43
77192;BME280;66172;48.526;8.078;2023-06-04T04:02:50;99444.38;;;13.92;68.46
77192;BME280;66172;48.526;8.078;2023-06-04T04:05:16;99455.38;;;13.76;69.53
77192;BME280;66172;48.526;8.078;2023-06-04T04:07:42;99453.28;;;13.70;70.08
77192;BME280;66172;48.526;8.078;2023-06-04T04:10:08;99457.66;;;13.55;70.82
77192;BME280;66172;48.526;8.078;2023-06-04T04:12:34;99454.44;;;13.69;70.21
77192;BME280;66172;48.526;8.078;2023-06-04T04:15:00;99451.91;;;13.79;69.64
77192;BME280;66172;48.526;8.078;2023-06-04T04:17:25;99464.72;;;13.94;69.45
77192;BME280;66172;48.526;8.078;2023-06-04T04:19:51;99460.63;;;14.04;68.76
77192;BME280;66172;48.526;8.078;2023-06-04T04:22:17;99458.81;;;14.12;68.20
77192;BME280;66172;48.526;8.078;2023-06-04T04:24:43;99460.34;;;13.90;69.16
77192;BME280;66172;48.526;8.078;2023-06-04T04:27:10;99459.78;;;13.81;69.39
77192;BME280;66172;48.526;8.078;2023-06-04T04:29:39;99466.03;;;14.00;68.93
77192;BME280;66172;48.526;8.078;2023-06-04T04:32:05;99463.28;;;14.00;68.80
77192;BME280;66172;48.526;8.078;2023-06-04T04:34:38;99461.56;;;14.12;68.21
77192;BME280;66172;48.526;8.078;2023-06-04T04:37:09;99465.06;;;14.31;67.98
77192;BME280;66172;48.526;8.078;2023-06-04T04:39:35;99470.09;;;14.48;67.36
77192;BME280;66172;48.526;8.078;2023-06-04T04:42:04;99468.34;;;14.60;66.36
77192;BME280;66172;48.526;8.078;2023-06-04T04:44:30;99469.97;;;14.64;65.87
77192;BME280;66172;48.526;8.078;2023-06-04T04:46:56;99465.19;;;14.80;65.83
77192;BME280;66172;48.526;8.078;2023-06-04T04:49:22;99468.63;;;15.00;65.28
77192;BME280;66172;48.526;8.078;2023-06-04T04:51:48;99461.69;;;15.06;65.17
77192;BME280;66172;48.526;8.078;2023-06-04T04:54:14;99465.59;;;15.05;65.14
77192;BME280;66172;48.526;8.078;2023-06-04T04:56:40;99469.50;;;15.30;64.30
77192;BME280;66172;48.526;8.078;2023-06-04T04:59:06;99470.91;;;15.73;62.88
77192;BME280;66172;48.526;8.078;2023-06-04T05:01:32;99463.66;;;16.21;61.41
77192;BME280;66172;48.526;8.078;2023-06-04T05:03:58;99468.31;;;16.94;59.00
77192;BME280;66172;48.526;8.078;2023-06-04T05:06:24;99465.56;;;17.49;57.88
77192;BME280;66172;48.526;8.078;2023-06-04T05:08:50;99470.75;;;18.62;53.90
77192;BME280;66172;48.526;8.078;2023-06-04T05:11:15;99473.91;;;19.34;51.74
77192;BME280;66172;48.526;8.078;2023-06-04T05:13:41;99475.16;;;20.41;49.15
77192;BME280;66172;48.526;8.078;2023-06-04T05:16:07;99477.94;;;21.45;47.14
77192;BME280;66172;48.526;8.078;2023-06-04T05:18:34;99476.72;;;22.17;45.30
77192;BME280;66172;48.526;8.078;2023-06-04T05:21:00;99484.16;;;23.07;43.00
77192;BME280;66172;48.526;8.078;2023-06-04T05:23:29;99483.78;;;23.75;42.14
77192;BME280;66172;48.526;8.078;2023-06-04T05:25:58;99487.19;;;23.82;40.68
77192;BME280;66172;48.526;8.078;2023-06-04T05:28:25;99486.63;;;24.30;40.02
77192;BME280;66172;48.526;8.078;2023-06-04T05:30:51;99490.97;;;24.67;38.44
77192;BME280;66172;48.526;8.078;2023-06-04T05:33:17;99493.88;;;25.12;37.36
77192;BME280;66172;48.526;8.078;2023-06-04T05:35:46;99502.00;;;24.71;37.58
77192;BME280;66172;48.526;8.078;2023-06-04T05:38:14;99503.03;;;23.62;39.53
77192;BME280;66172;48.526;8.078;2023-06-04T05:40:47;99507.59;;;22.79;41.05
77192;BME280;66172;48.526;8.078;2023-06-04T05:43:13;99506.63;;;23.39;39.79
77192;BME280;66172;48.526;8.078;2023-06-04T05:45:39;99508.84;;;23.91;38.61
77192;BME280;66172;48.526;8.078;2023-06-04T05:48:05;99508.38;;;24.16;38.12
77192;BME280;66172;48.526;8.078;2023-06-04T05:50:31;99501.84;;;24.78;36.50
77192;BME280;66172;48.526;8.078;2023-06-04T05:52:57;99517.19;;;25.96;34.39
77192;BME280;66172;48.526;8.078;2023-06-04T05:55:23;99511.91;;;26.55;33.56
77192;BME280;66172;48.526;8.078;2023-06-04T05:57:49;99505.44;;;27.68;31.94
77192;BME280;66172;48.526;8.078;2023-06-04T06:00:17;99508.75;;;28.63;29.38
77192;BME280;66172;48.526;8.078;2023-06-04T06:02:43;99510.81;;;29.11;29.48
77192;BME280;66172;48.526;8.078;2023-06-04T06:05:11;99512.75;;;29.33;28.74
77192;BME280;66172;48.526;8.078;2023-06-04T06:07:37;99513.00;;;28.67;29.70
77192;BME280;66172;48.526;8.078;2023-06-04T06:10:03;99515.16;;;27.98;30.64
77192;BME280;66172;48.526;8.078;2023-06-04T06:12:30;99515.72;;;26.99;32.75
77192;BME280;66172;48.526;8.078;2023-06-04T06:14:56;99521.69;;;25.77;34.66
77192;BME280;66172;48.526;8.078;2023-06-04T06:17:22;99521.88;;;25.99;34.58
77192;BME280;66172;48.526;8.078;2023-06-04T06:19:48;99518.69;;;27.43;32.31
77192;BME280;66172;48.526;8.078;2023-06-04T06:22:14;99514.75;;;28.74;30.01
77192;BME280;66172;48.526;8.078;2023-06-04T06:24:41;99521.22;;;29.51;28.50
77192;BME280;66172;48.526;8.078;2023-06-04T06:27:06;99527.31;;;29.95;28.52
77192;BME280;66172;48.526;8.078;2023-06-04T06:29:33;99529.47;;;30.96;26.85
77192;BME280;66172;48.526;8.078;2023-06-04T06:31:59;99540.66;;;31.38;26.29
77192;BME280;66172;48.526;8.078;2023-06-04T06:34:26;99534.81;;;31.18;26.10
77192;BME280;66172;48.526;8.078;2023-06-04T06:36:52;99541.28;;;31.66;25.75
77192;BME280;66172;48.526;8.078;2023-06-04T06:39:18;99545.25;;;31.98;25.31
77192;BME280;66172;48.526;8.078;2023-06-04T06:41:45;99550.19;;;31.64;24.87
77192;BME280;66172;48.526;8.078;2023-06-04T06:44:11;99553.66;;;32.22;24.79
77192;BME280;66172;48.526;8.078;2023-06-04T06:46:37;99548.63;;;32.70;24.22
77192;BME280;66172;48.526;8.078;2023-06-04T06:49:03;99546.63;;;33.05;23.60
77192;BME280;66172;48.526;8.078;2023-06-04T06:51:29;99551.22;;;33.17;23.11
77192;BME280;66172;48.526;8.078;2023-06-04T06:53:54;99543.72;;;33.49;22.48
77192;BME280;66172;48.526;8.078;2023-06-04T06:56:20;99552.28;;;33.20;23.14
77192;BME280;66172;48.526;8.078;2023-06-04T06:58:46;99556.69;;;34.01;22.48
77192;BME280;66172;48.526;8.078;2023-06-04T07:01:13;99550.41;;;33.31;23.17
77192;BME280;66172;48.526;8.078;2023-06-04T07:03:39;99556.69;;;32.62;23.38
77192;BME280;66172;48.526;8.078;2023-06-04T07:06:06;99568.69;;;33.56;23.08
77192;BME280;66172;48.526;8.078;2023-06-04T07:08:32;99576.59;;;33.92;22.30
77192;BME280;66172;48.526;8.078;2023-06-04T07:10:59;99566.16;;;33.98;22.23
77192;BME280;66172;48.526;8.078;2023-06-04T07:13:25;99576.53;;;33.67;23.51
77192;BME280;66172;48.526;8.078;2023-06-04T07:15:51;99562.94;;;34.57;22.42
77192;BME280;66172;48.526;8.078;2023-06-04T07:18:16;99566.50;;;34.26;22.58
77192;BME280;66172;48.526;8.078;2023-06-04T07:20:42;99571.09;;;35.06;21.50
77192;BME280;66172;48.526;8.078;2023-06-04T07:23:08;99572.75;;;35.61;20.82
77192;BME280;66172;48.526;8.078;2023-06-04T07:25:34;99577.03;;;35.51;21.00
77192;BME280;66172;48.526;8.078;2023-06-04T07:28:00;99577.28;;;34.28;21.87
77192;BME280;66172;48.526;8.078;2023-06-04T07:30:30;99584.78;;;33.90;22.36
77192;BME280;66172;48.526;8.078;2023-06-04T07:32:57;99574.22;;;33.65;23.26
77192;BME280;66172;48.526;8.078;2023-06-04T07:35:23;99586.94;;;32.23;24.63
77192;BME280;66172;48.526;8.078;2023-06-04T07:37:49;99585.22;;;30.80;25.89
77192;BME280;66172;48.526;8.078;2023-06-04T07:40:16;99581.94;;;29.54;28.35
77192;BME280;66172;48.526;8.078;2023-06-04T07:42:45;99584.53;;;29.30;28.57
77192;BME280;66172;48.526;8.078;2023-06-04T07:45:12;99579.28;;;29.41;28.33
77192;BME280;66172;48.526;8.078;2023-06-04T07:47:38;99579.91;;;29.14;28.48
77192;BME280;66172;48.526;8.078;2023-06-04T07:50:05;99584.53;;;29.39;28.24
77192;BME280;66172;48.526;8.078;2023-06-04T07:52:32;99578.72;;;28.63;28.62
77192;BME280;66172;48.526;8.078;2023-06-04T07:54:59;99579.16;;;27.37;31.64
77192;BME280;66172;48.526;8.078;2023-06-04T07:57:25;99570.66;;;27.15;31.88
77192;BME280;66172;48.526;8.078;2023-06-04T07:59:51;99575.41;;;25.77;33.95
77192;BME280;66172;48.526;8.078;2023-06-04T08:02:17;99579.03;;;25.91;33.93
77192;BME280;66172;48.526;8.078;2023-06-04T08:04:44;99584.72;;;25.39;35.16
77192;BME280;66172;48.526;8.078;2023-06-04T08:07:10;99593.75;;;25.26;35.40
77192;BME280;66172;48.526;8.078;2023-06-04T08:09:36;99602.91;;;24.91;36.01
77192;BME280;66172;48.526;8.078;2023-06-04T08:12:02;99595.34;;;24.56;36.34
77192;BME280;66172;48.526;8.078;2023-06-04T08:14:28;99597.56;;;24.02;37.67
77192;BME280;66172;48.526;8.078;2023-06-04T08:16:54;99597.25;;;24.59;36.91
77192;BME280;66172;48.526;8.078;2023-06-04T08:19:20;99600.53;;;24.73;36.00
77192;BME280;66172;48.526;8.078;2023-06-04T08:21:46;99595.16;;;24.82;36.25
77192;BME280;66172;48.526;8.078;2023-06-04T08:24:13;99609.94;;;25.48;35.11
77192;BME280;66172;48.526;8.078;2023-06-04T08:26:39;99600.13;;;25.27;34.41
77192;BME280;66172;48.526;8.078;2023-06-04T08:29:05;99611.75;;;25.58;34.37
77192;BME280;66172;48.526;8.078;2023-06-04T08:31:32;99614.31;;;25.49;34.58
77192;BME280;66172;48.526;8.078;2023-06-04T08:33:58;99607.00;;;25.39;35.03
77192;BME280;66172;48.526;8.078;2023-06-04T08:36:24;99607.50;;;25.33;35.13
77192;BME280;66172;48.526;8.078;2023-06-04T08:38:51;99607.00;;;25.39;35.31
77192;BME280;66172;48.526;8.078;2023-06-04T08:43:47;99609.22;;;25.63;34.25
77192;BME280;66172;48.526;8.078;2023-06-04T08:46:15;99603.50;;;25.99;33.67
77192;BME280;66172;48.526;8.078;2023-06-04T08:48:43;99611.38;;;25.56;34.89
77192;BME280;66172;48.526;8.078;2023-06-04T08:51:09;99618.59;;;25.69;35.72
77192;BME280;66172;48.526;8.078;2023-06-04T08:53:36;99616.59;;;26.72;33.23
77192;BME280;66172;48.526;8.078;2023-06-04T08:56:03;99618.47;;;27.17;32.30
77192;BME280;66172;48.526;8.078;2023-06-04T08:58:31;99604.63;;;27.98;31.03
77192;BME280;66172;48.526;8.078;2023-06-04T09:00:58;99622.63;;;27.50;31.50
77192;BME280;66172;48.526;8.078;2023-06-04T09:03:25;99623.50;;;26.97;33.19
77192;BME280;66172;48.526;8.078;2023-06-04T09:05:52;99617.97;;;26.80;33.00
77192;BME280;66172;48.526;8.078;2023-06-04T09:08:19;99621.38;;;27.01;33.02
77192;BME280;66172;48.526;8.078;2023-06-04T09:10:48;99614.53;;;26.89;32.41
77192;BME280;66172;48.526;8.078;2023-06-04T09:13:18;99614.13;;;26.62;33.28
77192;BME280;66172;48.526;8.078;2023-06-04T09:16:00;99621.69;;;27.03;32.78
77192;BME280;66172;48.526;8.078;2023-06-04T09:18:26;99619.38;;;27.14;32.79
77192;BME280;66172;48.526;8.078;2023-06-04T09:21:03;99616.00;;;27.31;32.03
77192;BME280;66172;48.526;8.078;2023-06-04T09:23:34;99619.50;;;27.23;33.97
77192;BME280;66172;48.526;8.078;2023-06-04T09:26:10;99619.81;;;27.75;32.17
77192;BME280;66172;48.526;8.078;2023-06-04T09:28:43;99612.06;;;28.48;31.66
77192;BME280;66172;48.526;8.078;2023-06-04T09:31:18;99613.09;;;29.25;29.97
77192;BME280;66172;48.526;8.078;2023-06-04T09:33:50;99612.25;;;30.32;27.78
77192;BME280;66172;48.526;8.078;2023-06-04T09:36:16;99607.84;;;30.76;28.22
77192;BME280;66172;48.526;8.078;2023-06-04T09:38:43;99609.59;;;31.81;26.44
77192;BME280;66172;48.526;8.078;2023-06-04T09:41:13;99605.53;;;31.82;26.44
77192;BME280;66172;48.526;8.078;2023-06-04T09:43:39;99600.81;;;32.65;25.66
77192;BME280;66172;48.526;8.078;2023-06-04T09:46:10;99603.41;;;33.12;25.20
77192;BME280;66172;48.526;8.078;2023-06-04T09:48:37;99601.16;;;33.02;24.78
77192;BME280;66172;48.526;8.078;2023-06-04T09:51:07;99590.69;;;33.52;24.64
77192;BME280;66172;48.526;8.078;2023-06-04T09:53:33;99598.88;;;34.10;23.82
77192;BME280;66172;48.526;8.078;2023-06-04T09:56:00;99585.75;;;34.07;23.96
77192;BME280;66172;48.526;8.078;2023-06-04T09:58:30;99582.38;;;34.03;23.78
77192;BME280;66172;48.526;8.078;2023-06-04T10:00:57;99578.09;;;33.88;23.51
77192;BME280;66172;48.526;8.078;2023-06-04T10:03:25;99577.63;;;34.35;23.33
77192;BME280;66172;48.526;8.078;2023-06-04T10:05:53;99581.19;;;33.70;23.91
77192;BME280;66172;48.526;8.078;2023-06-04T10:08:22;99580.09;;;33.12;25.41
77192;BME280;66172;48.526;8.078;2023-06-04T10:10:50;99579.00;;;33.79;24.48
77192;BME280;66172;48.526;8.078;2023-06-04T10:13:18;99579.66;;;33.34;24.99
77192;BME280;66172;48.526;8.078;2023-06-04T10:15:48;99583.81;;;32.74;24.39
77192;BME280;66172;48.526;8.078;2023-06-04T10:18:15;99574.63;;;33.78;23.50
77192;BME280;66172;48.526;8.078;2023-06-04T10:20:42;99576.56;;;31.91;25.86
77192;BME280;66172;48.526;8.078;2023-06-04T10:23:08;99566.31;;;32.85;24.41
77192;BME280;66172;48.526;8.078;2023-06-04T10:25:35;99568.88;;;33.67;23.68
77192;BME280;66172;48.526;8.078;2023-06-04T10:28:01;99571.81;;;34.19;22.25
77192;BME280;66172;48.526;8.078;2023-06-04T10:30:29;99573.13;;;34.03;23.21
77192;BME280;66172;48.526;8.078;2023-06-04T10:32:56;99572.63;;;34.25;22.98
77192;BME280;66172;48.526;8.078;2023-06-04T10:35:32;99566.03;;;34.59;21.90
77192;BME280;66172;48.526;8.078;2023-06-04T10:38:12;99564.78;;;35.23;21.14
77192;BME280;66172;48.526;8.078;2023-06-04T10:40:42;99558.22;;;35.05;21.87
77192;BME280;66172;48.526;8.078;2023-06-04T10:43:09;99558.31;;;34.80;21.99
77192;BME280;66172;48.526;8.078;2023-06-04T10:45:36;99554.91;;;34.50;22.21
77192;BME280;66172;48.526;8.078;2023-06-04T10:48:03;99548.56;;;34.29;22.64
77192;BME280;66172;48.526;8.078;2023-06-04T10:50:31;99551.81;;;35.47;21.50
77192;BME280;66172;48.526;8.078;2023-06-04T10:52:58;99553.22;;;35.63;21.77
77192;BME280;66172;48.526;8.078;2023-06-04T10:55:25;99551.66;;;36.32;20.43
77192;BME280;66172;48.526;8.078;2023-06-04T10:57:54;99556.47;;;34.51;21.93
77192;BME280;66172;48.526;8.078;2023-06-04T11:00:20;99549.34;;;34.30;22.76
77192;BME280;66172;48.526;8.078;2023-06-04T11:02:54;99553.25;;;34.64;22.83
77192;BME280;66172;48.526;8.078;2023-06-04T11:05:21;99552.06;;;35.92;20.86
77192;BME280;66172;48.526;8.078;2023-06-04T11:07:48;99552.41;;;36.38;20.60
77192;BME280;66172;48.526;8.078;2023-06-04T11:10:15;99557.44;;;35.84;20.98
77192;BME280;66172;48.526;8.078;2023-06-04T11:12:48;99550.84;;;34.82;22.13
77192;BME280;66172;48.526;8.078;2023-06-04T11:15:18;99541.66;;;34.30;22.40
77192;BME280;66172;48.526;8.078;2023-06-04T11:17:55;99545.28;;;34.36;22.32
77192;BME280;66172;48.526;8.078;2023-06-04T11:20:23;99531.94;;;34.63;21.77
77192;BME280;66172;48.526;8.078;2023-06-04T11:22:54;99530.03;;;34.54;21.84
77192;BME280;66172;48.526;8.078;2023-06-04T11:25:23;99533.22;;;35.83;19.88
77192;BME280;66172;48.526;8.078;2023-06-04T11:27:51;99535.06;;;35.44;21.49
77192;BME280;66172;48.526;8.078;2023-06-04T11:30:18;99534.53;;;35.34;21.54
77192;BME280;66172;48.526;8.078;2023-06-04T11:32:44;99539.16;;;35.37;20.83
77192;BME280;66172;48.526;8.078;2023-06-04T11:35:10;99539.28;;;35.59;20.76
77192;BME280;66172;48.526;8.078;2023-06-04T11:37:39;99533.81;;;35.50;21.41
77192;BME280;66172;48.526;8.078;2023-06-04T11:40:16;99524.06;;;34.46;21.40
77192;BME280;66172;48.526;8.078;2023-06-04T11:42:43;99522.94;;;34.95;21.21
77192;BME280;66172;48.526;8.078;2023-06-04T11:45:11;99519.56;;;34.60;21.57
77192;BME280;66172;48.526;8.078;2023-06-04T11:47:37;99522.41;;;34.34;21.45
77192;BME280;66172;48.526;8.078;2023-06-04T11:50:04;99512.44;;;34.39;22.29
77192;BME280;66172;48.526;8.078;2023-06-04T11:52:30;99522.75;;;34.16;22.13
77192;BME280;66172;48.526;8.078;2023-06-04T11:54:57;99513.50;;;35.04;21.25
77192;BME280;66172;48.526;8.078;2023-06-04T11:57:23;99520.84;;;35.22;20.42
77192;BME280;66172;48.526;8.078;2023-06-04T11:59:49;99510.41;;;34.71;21.37
77192;BME280;66172;48.526;8.078;2023-06-04T12:02:15;99500.69;;;34.72;21.87
77192;BME280;66172;48.526;8.078;2023-06-04T12:04:41;99502.38;;;34.95;20.78
77192;BME280;66172;48.526;8.078;2023-06-04T12:07:07;99487.91;;;34.87;20.57
77192;BME280;66172;48.526;8.078;2023-06-04T12:09:34;99493.81;;;34.52;20.60
77192;BME280;66172;48.526;8.078;2023-06-04T12:12:02;99495.59;;;34.50;21.07
77192;BME280;66172;48.526;8.078;2023-06-04T12:14:29;99496.59;;;34.73;20.18
77192;BME280;66172;48.526;8.078;2023-06-04T12:17:02;99490.03;;;34.61;20.12
77192;BME280;66172;48.526;8.078;2023-06-04T12:19:31;99481.84;;;33.86;21.71
77192;BME280;66172;48.526;8.078;2023-06-04T12:22:07;99479.88;;;32.61;23.58
77192;BME280;66172;48.526;8.078;2023-06-04T12:24:35;99489.13;;;32.97;22.75
77192;BME280;66172;48.526;8.078;2023-06-04T12:27:11;99477.25;;;32.29;23.31
77192;BME280;66172;48.526;8.078;2023-06-04T12:29:37;99473.75;;;32.63;22.75
77192;BME280;66172;48.526;8.078;2023-06-04T12:32:04;99473.81;;;31.95;23.86
77192;BME280;66172;48.526;8.078;2023-06-04T12:34:40;99471.44;;;32.32;22.79
77192;BME280;66172;48.526;8.078;2023-06-04T12:37:06;99474.19;;;31.74;24.09
77192;BME280;66172;48.526;8.078;2023-06-04T12:39:36;99471.88;;;31.87;24.47
77192;BME280;66172;48.526;8.078;2023-06-04T12:42:03;99468.22;;;31.57;23.76
77192;BME280;66172;48.526;8.078;2023-06-04T12:44:30;99471.50;;;31.32;24.89
77192;BME280;66172;48.526;8.078;2023-06-04T12:46:56;99461.22;;;32.20;23.16
77192;BME280;66172;48.526;8.078;2023-06-04T12:49:22;99467.56;;;31.62;23.90
77192;BME280;66172;48.526;8.078;2023-06-04T12:51:48;99467.06;;;32.31;22.82
77192;BME280;66172;48.526;8.078;2023-06-04T12:54:14;99459.66;;;32.34;22.88
77192;BME280;66172;48.526;8.078;2023-06-04T12:56:40;99458.06;;;31.74;23.85
77192;BME280;66172;48.526;8.078;2023-06-04T12:59:07;99466.38;;;31.06;24.07
77192;BME280;66172;48.526;8.078;2023-06-04T13:01:33;99462.63;;;31.00;24.19
77192;BME280;66172;48.526;8.078;2023-06-04T13:03:58;99467.25;;;30.80;24.52
77192;BME280;66172;48.526;8.078;2023-06-04T13:06:24;99456.94;;;30.86;25.52